createdAt,value
2018-06-11T00:00:57.822Z,17.23
2018-06-11T00:05:01.131Z,17.90
2018-06-11T00:09:07.143Z,18.17
2018-06-11T00:13:10.491Z,17.50
2018-06-11T00:17:13.852Z,16.17
2018-06-11T00:21:17.182Z,17.40
2018-06-11T00:25:20.495Z,16.33
2018-06-11T00:29:23.818Z,15.47
2018-06-11T00:33:27.210Z,15.93
2018-06-11T00:37:30.283Z,15.37
2018-06-11T00:41:33.631Z,15.00
2018-06-11T00:45:36.946Z,14.70
2018-06-11T00:49:40.293Z,13.87
2018-06-11T00:53:43.634Z,14.03
2018-06-11T00:57:47.026Z,13.53
2018-06-11T01:01:50.088Z,13.60
2018-06-11T01:05:53.406Z,12.57
2018-06-11T01:09:56.748Z,12.60
2018-06-11T01:14:00.102Z,11.97
2018-06-11T01:18:03.464Z,13.13
2018-06-11T01:22:06.817Z,12.70
2018-06-11T01:26:10.134Z,11.80
2018-06-11T01:30:13.495Z,11.77
2018-06-11T01:34:16.835Z,10.67
2018-06-11T01:38:20.174Z,11.73
2018-06-11T01:42:23.507Z,10.80
2018-06-11T01:46:26.822Z,10.60
2018-06-11T01:50:30.155Z,10.50
2018-06-11T01:54:33.482Z,11.17
2018-06-11T01:58:36.838Z,10.57
2018-06-11T02:02:40.178Z,11.07
2018-06-11T02:06:43.501Z,11.30
2018-06-11T02:10:46.858Z,11.40
2018-06-11T02:14:51.029Z,11.73
2018-06-11T02:18:54.379Z,11.80
2018-06-11T02:22:57.737Z,11.97
2018-06-11T02:27:01.099Z,12.50
2018-06-11T02:31:04.436Z,13.07
2018-06-11T02:35:07.766Z,12.50
2018-06-11T02:39:11.185Z,12.43
2018-06-11T02:43:14.536Z,13.40
2018-06-11T02:47:17.858Z,12.37
2018-06-11T02:51:21.319Z,11.50
2018-06-11T02:55:24.668Z,10.40
2018-06-11T02:59:28.014Z,9.93
2018-06-11T03:03:31.342Z,11.00
2018-06-11T03:07:34.654Z,11.43
2018-06-11T03:11:39.168Z,11.57
2018-06-11T03:15:42.530Z,10.33
2018-06-11T03:19:45.881Z,10.47
2018-06-11T03:23:49.221Z,11.77
2018-06-11T03:27:52.535Z,11.03
2018-06-11T03:31:55.963Z,12.13
2018-06-11T03:35:59.295Z,11.60
2018-06-11T03:40:02.643Z,10.90
2018-06-11T03:44:06.003Z,10.37
2018-06-11T03:48:09.062Z,11.33
2018-06-11T03:52:12.396Z,11.17
2018-06-11T03:56:15.725Z,10.17
2018-06-11T04:00:19.054Z,10.43
2018-06-11T04:04:22.378Z,10.73
2018-06-11T04:08:25.726Z,11.17
2018-06-11T04:12:29.047Z,10.47
2018-06-11T04:16:32.418Z,10.30
2018-06-11T04:20:35.752Z,8.97
2018-06-11T04:24:39.083Z,8.60
2018-06-11T04:28:42.430Z,8.03
2018-06-11T04:32:45.738Z,7.00
2018-06-11T04:36:49.059Z,5.83
2018-06-11T04:40:52.398Z,6.13
2018-06-11T04:44:55.718Z,7.30
2018-06-11T04:48:59.046Z,6.77
2018-06-11T04:53:02.379Z,7.20
2018-06-11T04:57:05.720Z,6.20
2018-06-11T05:01:09.048Z,6.50
2018-06-11T05:05:12.371Z,7.20
2018-06-11T05:09:15.703Z,7.07
2018-06-11T05:13:19.038Z,6.90
2018-06-11T05:17:22.397Z,7.60
2018-06-11T05:21:25.764Z,7.90
2018-06-11T05:25:29.111Z,7.77
2018-06-11T05:29:32.447Z,7.87
2018-06-11T05:33:35.775Z,7.87
2018-06-11T05:37:39.142Z,8.40
2018-06-11T05:41:42.462Z,7.73
2018-06-11T05:45:45.791Z,7.77
2018-06-11T05:49:49.112Z,7.77
2018-06-11T05:53:52.436Z,8.27
2018-06-11T05:57:55.759Z,8.20
2018-06-11T06:01:59.208Z,7.43
2018-06-11T06:06:02.542Z,8.37
2018-06-11T06:10:05.954Z,8.17
2018-06-11T06:14:09.337Z,9.43
2018-06-11T06:18:12.661Z,10.83
2018-06-11T06:22:16.006Z,11.47
2018-06-11T06:26:19.329Z,13.77
2018-06-11T06:30:22.665Z,15.17
2018-06-11T06:34:26.064Z,15.53
2018-06-11T06:38:29.334Z,15.83
2018-06-11T06:42:32.663Z,15.90
2018-06-11T06:46:35.995Z,16.33
2018-06-11T06:50:39.310Z,16.13
2018-06-11T06:54:42.615Z,17.87
2018-06-11T06:58:45.948Z,17.53
2018-06-11T07:02:49.272Z,16.67
2018-06-11T07:06:52.609Z,16.83
2018-06-11T07:10:56.055Z,16.20
2018-06-11T07:14:59.389Z,16.40
2018-06-11T07:19:02.731Z,15.07
2018-06-11T07:23:06.066Z,13.33
2018-06-11T07:27:09.477Z,15.53
2018-06-11T07:31:12.763Z,13.93
2018-06-11T07:35:16.070Z,13.83
2018-06-11T07:39:19.399Z,14.67
2018-06-11T07:43:22.795Z,13.07
2018-06-11T07:47:26.135Z,12.97
2018-06-11T07:51:29.599Z,11.20
2018-06-11T07:55:32.907Z,10.70
2018-06-11T07:59:36.252Z,8.93
2018-06-11T08:03:39.310Z,9.03
2018-06-11T08:07:42.663Z,9.83
2018-06-11T08:11:46.127Z,9.07
2018-06-11T08:15:49.447Z,9.03
2018-06-11T08:19:52.771Z,9.77
2018-06-11T08:23:56.103Z,8.70
2018-06-11T08:27:59.447Z,10.53
2018-06-11T08:32:02.770Z,9.67
2018-06-11T08:36:06.135Z,10.73
2018-06-11T08:40:09.430Z,10.43
2018-06-11T08:44:12.764Z,9.60
2018-06-11T08:48:16.100Z,11.03
2018-06-11T08:52:19.443Z,10.50
2018-06-11T08:56:22.767Z,10.70
2018-06-11T09:00:26.134Z,12.03
2018-06-11T09:04:29.458Z,10.97
2018-06-11T09:08:32.789Z,11.10
2018-06-11T09:12:36.173Z,11.33
2018-06-11T09:16:39.559Z,12.00
2018-06-11T09:20:42.888Z,12.57
2018-06-11T09:24:46.223Z,11.43
2018-06-11T09:28:49.558Z,11.30
2018-06-11T09:32:52.919Z,10.67
2018-06-11T09:36:56.246Z,10.57
2018-06-11T09:40:59.563Z,11.80
2018-06-11T09:45:02.907Z,11.40
2018-06-11T09:49:06.298Z,10.97
2018-06-11T09:53:09.595Z,10.70
2018-06-11T09:57:12.923Z,8.97
2018-06-11T10:01:16.296Z,9.70
2018-06-11T10:05:19.628Z,9.23
2018-06-11T10:09:23.017Z,9.80
2018-06-11T10:13:26.343Z,9.90
2018-06-11T10:17:29.715Z,10.03
2018-06-11T10:21:33.103Z,9.97
2018-06-11T10:25:36.436Z,9.70
2018-06-11T10:29:39.780Z,9.83
2018-06-11T10:33:43.087Z,9.97
2018-06-11T10:37:46.419Z,9.93
2018-06-11T10:41:49.747Z,9.20
2018-06-11T10:45:53.081Z,9.17
2018-06-11T10:49:56.405Z,10.83
2018-06-11T10:53:59.497Z,10.10
2018-06-11T10:58:02.896Z,10.70
2018-06-11T11:02:06.178Z,9.57
2018-06-11T11:06:09.504Z,8.00
2018-06-11T11:10:12.819Z,8.93
2018-06-11T11:14:16.185Z,7.63
2018-06-11T11:18:19.503Z,8.27
2018-06-11T11:22:22.803Z,7.90
2018-06-11T11:26:26.140Z,7.73
2018-06-11T11:30:29.464Z,7.27
2018-06-11T11:34:32.794Z,8.53
2018-06-11T11:38:36.139Z,7.90
2018-06-11T11:42:39.195Z,8.03
2018-06-11T11:46:42.524Z,6.23
2018-06-11T11:50:45.847Z,7.50
2018-06-11T11:54:49.167Z,7.07
2018-06-11T11:58:52.495Z,6.60
2018-06-11T12:02:55.818Z,6.17
2018-06-11T12:06:59.151Z,6.40
2018-06-11T12:11:02.515Z,6.67
2018-06-11T12:15:05.859Z,6.50
2018-06-11T12:19:09.226Z,8.40
2018-06-11T12:23:12.563Z,8.03
2018-06-11T12:27:15.887Z,8.27
2018-06-11T12:31:19.273Z,7.37
2018-06-11T12:35:22.586Z,7.53
2018-06-11T12:39:25.911Z,7.53
2018-06-11T12:43:29.239Z,7.23
2018-06-11T12:47:32.612Z,7.60
2018-06-11T12:51:35.930Z,6.53
2018-06-11T12:55:39.275Z,7.47
2018-06-11T12:59:42.631Z,7.30
2018-06-11T13:03:45.992Z,6.27
2018-06-11T13:07:49.316Z,6.90
2018-06-11T13:11:52.768Z,7.37
2018-06-11T13:15:56.134Z,7.00
2018-06-11T13:19:59.474Z,6.50
2018-06-11T13:24:02.797Z,6.40
2018-06-11T13:28:06.190Z,7.27
2018-06-11T13:32:09.503Z,6.37
2018-06-11T13:36:12.863Z,5.70
2018-06-11T13:40:16.188Z,6.07
2018-06-11T13:44:19.521Z,5.87
2018-06-11T13:48:22.835Z,5.17
2018-06-11T13:52:26.250Z,6.80
2018-06-11T13:56:29.584Z,6.27
2018-06-11T14:00:32.986Z,5.90
2018-06-11T14:04:36.320Z,6.20
2018-06-11T14:08:39.626Z,4.93
2018-06-11T14:12:43.017Z,4.97
2018-06-11T14:16:46.364Z,5.80
2018-06-11T14:20:49.435Z,6.20
2018-06-11T14:24:52.763Z,6.50
2018-06-11T14:28:56.072Z,6.20
2018-06-11T14:32:59.571Z,6.03
2018-06-11T14:37:02.918Z,5.90
2018-06-11T14:41:06.298Z,5.70
2018-06-11T14:45:09.626Z,6.00
2018-06-11T14:49:12.976Z,5.83
2018-06-11T14:53:16.315Z,7.20
2018-06-11T14:57:19.676Z,6.97
2018-06-11T15:01:22.823Z,7.57
2018-06-11T15:05:26.166Z,7.73
2018-06-11T15:09:29.526Z,6.47
2018-06-11T15:13:32.859Z,6.27
2018-06-11T15:17:36.241Z,6.90
2018-06-11T15:21:39.599Z,6.50
2018-06-11T15:25:43.382Z,5.47
2018-06-11T15:29:46.722Z,6.60
2018-06-11T15:33:50.052Z,5.57
2018-06-11T15:37:53.371Z,5.47
2018-06-11T15:41:56.702Z,5.43
2018-06-11T15:46:00.039Z,5.37
2018-06-11T15:50:03.408Z,5.13
2018-06-11T15:54:06.730Z,6.13
2018-06-11T15:58:10.083Z,5.80
2018-06-11T16:02:13.424Z,5.17
2018-06-11T16:06:16.766Z,5.63
2018-06-11T16:10:21.139Z,5.30
2018-06-11T16:14:24.504Z,4.60
2018-06-11T16:18:27.989Z,5.40
2018-06-11T16:22:31.331Z,5.10
2018-06-11T16:26:34.671Z,4.60
2018-06-11T16:30:38.016Z,4.63
2018-06-11T16:34:41.346Z,4.67
2018-06-11T16:38:44.680Z,5.20
2018-06-11T16:42:48.039Z,5.07
2018-06-11T16:46:51.414Z,5.73
2018-06-11T16:50:54.862Z,4.70
2018-06-11T16:54:58.215Z,4.60
2018-06-11T16:59:01.558Z,4.40
2018-06-11T17:03:04.654Z,4.60
2018-06-11T17:07:08.163Z,4.87
2018-06-11T17:11:11.524Z,4.83
2018-06-11T17:15:14.886Z,4.53
2018-06-11T17:19:18.219Z,4.50
2018-06-11T17:23:21.564Z,4.40
2018-06-11T17:27:24.903Z,4.60
2018-06-11T17:31:28.240Z,5.03
2018-06-11T17:35:31.572Z,4.57
2018-06-11T17:39:35.009Z,4.47
2018-06-11T17:43:38.343Z,4.07
2018-06-11T17:47:41.681Z,4.33
2018-06-11T17:51:45.050Z,4.37
2018-06-11T17:55:48.387Z,4.00
2018-06-11T17:59:51.859Z,4.23
2018-06-11T18:03:55.190Z,4.27
2018-06-11T18:07:58.521Z,4.10
2018-06-11T18:12:01.870Z,3.97
2018-06-11T18:16:05.235Z,3.80
2018-06-11T18:20:08.563Z,4.17
2018-06-11T18:24:11.907Z,4.30
2018-06-11T18:28:15.250Z,4.77
2018-06-11T18:32:18.572Z,4.97
2018-06-11T18:36:21.888Z,3.87
2018-06-11T18:40:25.282Z,3.97
2018-06-11T18:44:29.171Z,4.20
2018-06-11T18:48:32.519Z,4.97
2018-06-11T18:52:35.863Z,4.23
2018-06-11T18:56:39.198Z,4.73
2018-06-11T19:00:42.527Z,4.97
2018-06-11T19:04:45.863Z,4.63
2018-06-11T19:08:49.235Z,5.73
2018-06-11T19:12:52.571Z,5.50
2018-06-11T19:16:55.910Z,5.30
2018-06-11T19:20:59.286Z,5.73
2018-06-11T19:25:02.627Z,5.87
2018-06-11T19:29:05.959Z,6.20
2018-06-11T19:33:15.756Z,5.63
2018-06-11T19:37:19.088Z,5.80
2018-06-11T19:41:22.423Z,5.40
2018-06-11T19:45:25.747Z,5.10
2018-06-11T19:49:29.070Z,5.20
2018-06-11T19:53:32.390Z,5.80
2018-06-11T19:57:36.427Z,5.50
2018-06-11T20:01:40.038Z,5.57
2018-06-11T20:05:44.443Z,5.57
2018-06-11T20:09:48.802Z,6.47
2018-06-11T20:13:52.235Z,6.17
2018-06-11T20:17:55.819Z,6.43
2018-06-11T20:22:00.170Z,5.97
2018-06-11T20:26:03.873Z,6.60
2018-06-11T20:30:07.315Z,6.30
2018-06-11T20:34:10.978Z,6.33
2018-06-11T20:38:14.855Z,7.17
2018-06-11T20:42:18.855Z,7.27
2018-06-11T20:46:22.432Z,7.27
2018-06-11T20:50:25.962Z,6.83
2018-06-11T20:54:30.035Z,6.47
2018-06-11T20:58:33.631Z,7.23
2018-06-11T21:02:38.003Z,7.53
2018-06-11T21:06:41.808Z,7.27
2018-06-11T21:10:45.223Z,7.43
2018-06-11T21:14:48.979Z,7.93
2018-06-11T21:18:53.342Z,7.50
2018-06-11T21:22:58.254Z,8.17
2018-06-11T21:27:02.512Z,7.67
2018-06-11T21:31:07.442Z,8.40
2018-06-11T21:35:12.487Z,8.53
2018-06-11T21:39:17.613Z,7.93
2018-06-11T21:43:21.853Z,8.33
2018-06-11T21:47:26.875Z,8.17
2018-06-11T21:51:33.567Z,8.63
2018-06-11T21:55:37.624Z,8.90
2018-06-11T21:59:40.955Z,9.07
2018-06-11T22:03:44.314Z,9.17
2018-06-11T22:07:47.627Z,9.23
2018-06-11T22:11:50.963Z,9.47
2018-06-11T22:15:54.330Z,9.67
2018-06-11T22:19:57.664Z,9.83
2018-06-11T22:24:00.976Z,9.60
2018-06-11T22:28:04.306Z,9.07
2018-06-11T22:32:14.119Z,9.23
2018-06-11T22:36:17.455Z,9.50
2018-06-11T22:40:22.391Z,9.70
2018-06-11T22:44:26.221Z,9.83
2018-06-11T22:48:30.570Z,10.27
2018-06-11T22:52:34.505Z,10.90
2018-06-11T22:56:37.865Z,11.03
2018-06-11T23:00:41.194Z,10.70
2018-06-11T23:04:44.512Z,10.77
2018-06-11T23:08:47.859Z,10.97
2018-06-11T23:12:51.186Z,10.87
2018-06-11T23:16:54.581Z,11.77
2018-06-11T23:20:57.927Z,11.60
2018-06-11T23:25:01.258Z,10.90
2018-06-11T23:29:04.668Z,11.17
2018-06-11T23:33:08.003Z,11.70
2018-06-11T23:37:11.374Z,12.10
2018-06-11T23:41:14.782Z,11.87
2018-06-11T23:45:18.120Z,12.23
2018-06-11T23:49:21.441Z,11.90
2018-06-11T23:53:24.798Z,12.40
2018-06-11T23:57:28.126Z,12.37
